sensor_id;sensor_type;location;lat;lon;timestamp;pressure;altitude;pressure_sealevel;temperature;humidity
75008;BME280;63554;48.940;12.050;2023-02-01T00:01:22;97811.72;;;1.62;85.77
75008;BME280;63554;48.940;12.050;2023-02-01T00:05:25;97804.72;;;1.61;85.65
75008;BME280;63554;48.940;12.050;2023-02-01T00:09:27;97813.41;;;1.63;86.38
75008;BME280;63554;48.940;12.050;2023-02-01T00:13:33;97820.88;;;1.60;86.76
75008;BME280;63554;48.940;12.050;2023-02-01T00:17:36;97812.63;;;1.53;87.32
75008;BME280;63554;48.940;12.050;2023-02-01T00:21:38;97822.16;;;1.55;87.29
75008;BME280;63554;48.940;12.050;2023-02-01T00:25:41;97815.13;;;1.54;87.01
75008;BME280;63554;48.940;12.050;2023-02-01T00:29:45;97796.47;;;1.54;87.39
75008;BME280;63554;48.940;12.050;2023-02-01T00:33:48;97805.47;;;1.53;87.29
75008;BME280;63554;48.940;12.050;2023-02-01T00:37:51;97788.59;;;1.53;87.35
75008;BME280;63554;48.940;12.050;2023-02-01T00:41:54;97801.81;;;1.54;87.42
75008;BME280;63554;48.940;12.050;2023-02-01T00:45:58;97808.69;;;1.57;86.94
75008;BME280;63554;48.940;12.050;2023-02-01T00:50:00;97803.72;;;1.62;86.77
75008;BME280;63554;48.940;12.050;2023-02-01T00:54:03;97809.03;;;1.62;86.49
75008;BME280;63554;48.940;12.050;2023-02-01T00:58:06;97794.41;;;1.66;86.13
75008;BME280;63554;48.940;12.050;2023-02-01T01:02:12;97782.75;;;1.67;86.01
75008;BME280;63554;48.940;12.050;2023-02-01T01:06:17;97792.00;;;1.73;85.70
75008;BME280;63554;48.940;12.050;2023-02-01T01:10:21;97791.38;;;1.79;85.90
75008;BME280;63554;48.940;12.050;2023-02-01T01:14:24;97785.56;;;1.84;85.51
75008;BME280;63554;48.940;12.050;2023-02-01T01:18:28;97803.19;;;1.94;84.95
75008;BME280;63554;48.940;12.050;2023-02-01T01:22:31;97816.97;;;1.90;85.38
75008;BME280;63554;48.940;12.050;2023-02-01T01:26:33;97817.34;;;1.95;85.28
75008;BME280;63554;48.940;12.050;2023-02-01T01:30:36;97817.22;;;1.96;85.22
75008;BME280;63554;48.940;12.050;2023-02-01T01:34:40;97812.84;;;1.95;84.95
75008;BME280;63554;48.940;12.050;2023-02-01T01:38:43;97803.34;;;1.93;85.55
75008;BME280;63554;48.940;12.050;2023-02-01T01:42:45;97800.34;;;1.96;85.42
75008;BME280;63554;48.940;12.050;2023-02-01T01:46:49;97780.13;;;1.93;85.46
75008;BME280;63554;48.940;12.050;2023-02-01T01:50:56;97793.72;;;2.00;85.32
75008;BME280;63554;48.940;12.050;2023-02-01T01:55:00;97778.00;;;1.97;85.60
75008;BME280;63554;48.940;12.050;2023-02-01T01:59:03;97785.34;;;1.95;85.76
75008;BME280;63554;48.940;12.050;2023-02-01T02:03:11;97793.53;;;2.02;85.51
75008;BME280;63554;48.940;12.050;2023-02-01T02:07:21;97761.50;;;2.02;85.70
75008;BME280;63554;48.940;12.050;2023-02-01T02:11:25;97751.38;;;2.05;85.23
75008;BME280;63554;48.940;12.050;2023-02-01T02:15:28;97775.78;;;2.10;85.47
75008;BME280;63554;48.940;12.050;2023-02-01T02:19:55;97767.25;;;2.07;85.27
75008;BME280;63554;48.940;12.050;2023-02-01T02:24:33;97750.75;;;2.11;85.48
75008;BME280;63554;48.940;12.050;2023-02-01T02:29:01;97753.41;;;2.11;85.39
75008;BME280;63554;48.940;12.050;2023-02-01T02:33:44;97741.75;;;2.12;85.41
75008;BME280;63554;48.940;12.050;2023-02-01T02:37:54;97750.59;;;2.13;85.30
75008;BME280;63554;48.940;12.050;2023-02-01T02:42:04;97760.78;;;2.17;85.06
75008;BME280;63554;48.940;12.050;2023-02-01T02:46:34;97731.41;;;2.17;85.02
75008;BME280;63554;48.940;12.050;2023-02-01T02:51:01;97734.81;;;2.20;85.26
75008;BME280;63554;48.940;12.050;2023-02-01T02:55:26;97732.59;;;2.15;85.68
75008;BME280;63554;48.940;12.050;2023-02-01T02:59:30;97725.72;;;2.12;86.14
75008;BME280;63554;48.940;12.050;2023-02-01T03:03:52;97732.91;;;2.12;86.18
75008;BME280;63554;48.940;12.050;2023-02-01T03:08:13;97723.25;;;2.19;85.59
75008;BME280;63554;48.940;12.050;2023-02-01T03:12:17;97722.97;;;2.22;85.48
75008;BME280;63554;48.940;12.050;2023-02-01T03:16:41;97731.00;;;2.30;84.86
75008;BME280;63554;48.940;12.050;2023-02-01T03:20:48;97723.16;;;2.29;84.91
75008;BME280;63554;48.940;12.050;2023-02-01T03:24:55;97724.88;;;2.38;84.47
75008;BME280;63554;48.940;12.050;2023-02-01T03:29:05;97733.94;;;2.45;84.01
75008;BME280;63554;48.940;12.050;2023-02-01T03:33:13;97719.91;;;2.43;84.07
75008;BME280;63554;48.940;12.050;2023-02-01T03:37:26;97738.91;;;2.40;84.74
75008;BME280;63554;48.940;12.050;2023-02-01T03:41:36;97712.50;;;2.37;84.56
75008;BME280;63554;48.940;12.050;2023-02-01T03:45:43;97698.84;;;2.40;83.67
75008;BME280;63554;48.940;12.050;2023-02-01T03:49:49;97688.00;;;2.42;83.88
75008;BME280;63554;48.940;12.050;2023-02-01T03:53:53;97677.66;;;2.47;83.58
75008;BME280;63554;48.940;12.050;2023-02-01T03:58:01;97664.84;;;2.50;83.17
75008;BME280;63554;48.940;12.050;2023-02-01T04:02:05;97673.00;;;2.49;83.31
75008;BME280;63554;48.940;12.050;2023-02-01T04:06:08;97686.69;;;2.46;83.42
75008;BME280;63554;48.940;12.050;2023-02-01T04:10:11;97693.69;;;2.47;83.53
75008;BME280;63554;48.940;12.050;2023-02-01T04:14:15;97685.88;;;2.45;83.68
75008;BME280;63554;48.940;12.050;2023-02-01T04:18:18;97700.19;;;2.44;83.49
75008;BME280;63554;48.940;12.050;2023-02-01T04:22:21;97682.53;;;2.43;83.39
75008;BME280;63554;48.940;12.050;2023-02-01T04:26:23;97690.53;;;2.43;83.43
75008;BME280;63554;48.940;12.050;2023-02-01T04:30:28;97680.84;;;2.42;83.56
75008;BME280;63554;48.940;12.050;2023-02-01T04:34:31;97687.19;;;2.41;83.14
75008;BME280;63554;48.940;12.050;2023-02-01T04:38:33;97689.53;;;2.44;83.20
75008;BME280;63554;48.940;12.050;2023-02-01T04:42:36;97671.72;;;2.53;83.89
75008;BME280;63554;48.940;12.050;2023-02-01T04:46:41;97675.53;;;2.50;82.89
75008;BME280;63554;48.940;12.050;2023-02-01T04:50:44;97662.31;;;2.49;83.08
75008;BME280;63554;48.940;12.050;2023-02-01T04:54:48;97655.81;;;2.43;83.02
75008;BME280;63554;48.940;12.050;2023-02-01T04:58:51;97652.97;;;2.45;83.24
75008;BME280;63554;48.940;12.050;2023-02-01T05:02:55;97651.31;;;2.44;83.19
75008;BME280;63554;48.940;12.050;2023-02-01T05:06:58;97639.13;;;2.41;83.20
75008;BME280;63554;48.940;12.050;2023-02-01T05:11:00;97644.63;;;2.48;82.99
75008;BME280;63554;48.940;12.050;2023-02-01T05:15:05;97633.78;;;2.49;82.50
75008;BME280;63554;48.940;12.050;2023-02-01T05:19:09;97651.16;;;2.53;82.44
75008;BME280;63554;48.940;12.050;2023-02-01T05:23:12;97640.16;;;2.56;82.42
75008;BME280;63554;48.940;12.050;2023-02-01T05:27:15;97621.94;;;2.52;82.30
75008;BME280;63554;48.940;12.050;2023-02-01T05:31:18;97621.94;;;2.52;82.10
75008;BME280;63554;48.940;12.050;2023-02-01T05:35:22;97638.78;;;2.52;82.29
75008;BME280;63554;48.940;12.050;2023-02-01T05:39:24;97626.59;;;2.50;82.19
75008;BME280;63554;48.940;12.050;2023-02-01T05:43:27;97619.09;;;2.45;82.44
75008;BME280;63554;48.940;12.050;2023-02-01T05:47:30;97617.25;;;2.46;82.14
75008;BME280;63554;48.940;12.050;2023-02-01T05:51:34;97629.78;;;2.45;82.22
75008;BME280;63554;48.940;12.050;2023-02-01T05:55:36;97611.91;;;2.46;82.20
75008;BME280;63554;48.940;12.050;2023-02-01T05:59:39;97601.75;;;2.49;82.17
75008;BME280;63554;48.940;12.050;2023-02-01T06:03:45;97592.53;;;2.44;82.03
75008;BME280;63554;48.940;12.050;2023-02-01T06:07:49;97587.03;;;2.45;82.12
75008;BME280;63554;48.940;12.050;2023-02-01T06:11:52;97589.03;;;2.43;81.88
75008;BME280;63554;48.940;12.050;2023-02-01T06:15:55;97579.84;;;2.46;81.71
75008;BME280;63554;48.940;12.050;2023-02-01T06:19:58;97589.38;;;2.48;81.68
75008;BME280;63554;48.940;12.050;2023-02-01T06:24:05;97583.88;;;2.50;81.59
75008;BME280;63554;48.940;12.050;2023-02-01T06:28:08;97585.53;;;2.51;81.50
75008;BME280;63554;48.940;12.050;2023-02-01T06:32:10;97587.72;;;2.47;81.53
75008;BME280;63554;48.940;12.050;2023-02-01T06:36:13;97589.38;;;2.48;81.99
75008;BME280;63554;48.940;12.050;2023-02-01T06:40:18;97598.06;;;2.50;81.53
75008;BME280;63554;48.940;12.050;2023-02-01T06:44:21;97602.72;;;2.48;81.83
75008;BME280;63554;48.940;12.050;2023-02-01T06:48:24;97580.19;;;2.51;81.65
75008;BME280;63554;48.940;12.050;2023-02-01T06:52:27;97579.72;;;2.55;81.41
75008;BME280;63554;48.940;12.050;2023-02-01T06:56:31;97586.56;;;2.58;81.58
75008;BME280;63554;48.940;12.050;2023-02-01T07:00:33;97580.03;;;2.61;81.84
75008;BME280;63554;48.940;12.050;2023-02-01T07:04:36;97574.03;;;2.58;82.67
75008;BME280;63554;48.940;12.050;2023-02-01T07:08:39;97580.22;;;2.59;82.68
75008;BME280;63554;48.940;12.050;2023-02-01T07:12:43;97567.19;;;2.56;83.12
75008;BME280;63554;48.940;12.050;2023-02-01T07:16:46;97579.22;;;2.60;83.73
75008;BME280;63554;48.940;12.050;2023-02-01T07:20:49;97590.72;;;2.61;83.67
75008;BME280;63554;48.940;12.050;2023-02-01T07:24:52;97585.06;;;2.55;83.87
75008;BME280;63554;48.940;12.050;2023-02-01T07:28:56;97588.72;;;2.54;84.24
75008;BME280;63554;48.940;12.050;2023-02-01T07:32:59;97577.03;;;2.55;84.50
75008;BME280;63554;48.940;12.050;2023-02-01T07:37:02;97596.06;;;2.52;84.56
75008;BME280;63554;48.940;12.050;2023-02-01T07:41:05;97607.09;;;2.57;84.20
75008;BME280;63554;48.940;12.050;2023-02-01T07:45:09;97611.28;;;2.60;84.42
75008;BME280;63554;48.940;12.050;2023-02-01T07:49:22;97633.94;;;2.48;85.63
75008;BME280;63554;48.940;12.050;2023-02-01T07:53:24;97632.56;;;2.35;86.40
75008;BME280;63554;48.940;12.050;2023-02-01T07:57:27;97632.50;;;2.19;87.48
75008;BME280;63554;48.940;12.050;2023-02-01T08:01:31;97623.28;;;2.13;88.44
75008;BME280;63554;48.940;12.050;2023-02-01T08:05:34;97639.28;;;2.13;88.12
75008;BME280;63554;48.940;12.050;2023-02-01T08:09:38;97642.75;;;2.06;88.84
75008;BME280;63554;48.940;12.050;2023-02-01T08:13:41;97658.97;;;2.04;89.48
75008;BME280;63554;48.940;12.050;2023-02-01T08:17:47;97648.22;;;1.96;88.64
75008;BME280;63554;48.940;12.050;2023-02-01T08:21:50;97659.38;;;1.91;89.08
75008;BME280;63554;48.940;12.050;2023-02-01T08:25:52;97666.94;;;1.78;89.11
75008;BME280;63554;48.940;12.050;2023-02-01T08:29:55;97670.78;;;1.75;89.44
75008;BME280;63554;48.940;12.050;2023-02-01T08:34:01;97646.75;;;1.75;89.87
75008;BME280;63554;48.940;12.050;2023-02-01T08:38:05;97649.81;;;1.81;89.76
75008;BME280;63554;48.940;12.050;2023-02-01T08:42:08;97640.66;;;1.83;90.13
75008;BME280;63554;48.940;12.050;2023-02-01T08:46:33;97643.84;;;1.87;90.01
75008;BME280;63554;48.940;12.050;2023-02-01T08:50:37;97660.00;;;1.85;89.53
75008;BME280;63554;48.940;12.050;2023-02-01T08:54:40;97664.47;;;1.76;89.99
75008;BME280;63554;48.940;12.050;2023-02-01T08:58:43;97652.09;;;1.75;90.29
75008;BME280;63554;48.940;12.050;2023-02-01T09:02:46;97619.94;;;1.77;90.21
75008;BME280;63554;48.940;12.050;2023-02-01T09:06:50;97640.94;;;1.80;90.06
75008;BME280;63554;48.940;12.050;2023-02-01T09:10:52;97637.63;;;2.12;89.36
75008;BME280;63554;48.940;12.050;2023-02-01T09:14:55;97622.06;;;2.34;89.16
75008;BME280;63554;48.940;12.050;2023-02-01T09:18:58;97635.59;;;2.49;87.75
75008;BME280;63554;48.940;12.050;2023-02-01T09:23:22;97630.41;;;2.39;87.59
75008;BME280;63554;48.940;12.050;2023-02-01T09:27:25;97653.94;;;2.35;87.90
75008;BME280;63554;48.940;12.050;2023-02-01T09:31:28;97663.56;;;2.28;88.43
75008;BME280;63554;48.940;12.050;2023-02-01T09:35:31;97654.34;;;2.14;88.39
75008;BME280;63554;48.940;12.050;2023-02-01T09:39:35;97669.69;;;2.12;88.62
75008;BME280;63554;48.940;12.050;2023-02-01T09:43:45;97679.06;;;2.25;88.22
75008;BME280;63554;48.940;12.050;2023-02-01T09:47:54;97657.72;;;2.25;88.16
75008;BME280;63554;48.940;12.050;2023-02-01T09:51:59;97661.06;;;2.27;88.51
75008;BME280;63554;48.940;12.050;2023-02-01T09:56:06;97665.25;;;2.29;88.44
75008;BME280;63554;48.940;12.050;2023-02-01T10:00:17;97664.09;;;2.32;88.75
75008;BME280;63554;48.940;12.050;2023-02-01T10:04:23;97660.25;;;2.34;89.15
75008;BME280;63554;48.940;12.050;2023-02-01T10:08:33;97666.13;;;2.38;88.64
75008;BME280;63554;48.940;12.050;2023-02-01T10:13:16;97656.16;;;2.48;88.43
75008;BME280;63554;48.940;12.050;2023-02-01T10:17:43;97665.25;;;2.72;87.94
75008;BME280;63554;48.940;12.050;2023-02-01T10:21:55;97650.13;;;2.97;87.89
75008;BME280;63554;48.940;12.050;2023-02-01T10:26:05;97662.66;;;3.13;87.43
75008;BME280;63554;48.940;12.050;2023-02-01T10:30:20;97651.31;;;3.19;86.10
75008;BME280;63554;48.940;12.050;2023-02-01T10:34:26;97686.28;;;3.34;84.94
75008;BME280;63554;48.940;12.050;2023-02-01T10:38:31;97659.69;;;3.49;83.81
75008;BME280;63554;48.940;12.050;2023-02-01T10:42:34;97649.31;;;3.54;83.61
75008;BME280;63554;48.940;12.050;2023-02-01T10:46:39;97658.16;;;3.54;83.79
75008;BME280;63554;48.940;12.050;2023-02-01T10:50:47;97666.03;;;3.56;82.92
75008;BME280;63554;48.940;12.050;2023-02-01T10:54:52;97654.00;;;3.60;82.68
75008;BME280;63554;48.940;12.050;2023-02-01T10:59:00;97689.63;;;3.69;81.60
75008;BME280;63554;48.940;12.050;2023-02-01T11:03:19;97674.56;;;3.68;81.92
75008;BME280;63554;48.940;12.050;2023-02-01T11:07:24;97688.13;;;3.74;81.94
75008;BME280;63554;48.940;12.050;2023-02-01T11:11:27;97687.09;;;3.75;81.38
75008;BME280;63554;48.940;12.050;2023-02-01T11:15:30;97685.44;;;3.91;81.69
75008;BME280;63554;48.940;12.050;2023-02-01T11:19:34;97673.09;;;4.38;79.00
75008;BME280;63554;48.940;12.050;2023-02-01T11:23:41;97676.28;;;4.33;78.34
75008;BME280;63554;48.940;12.050;2023-02-01T11:27:45;97673.75;;;4.48;75.91
75008;BME280;63554;48.940;12.050;2023-02-01T11:31:56;97690.31;;;4.51;75.79
75008;BME280;63554;48.940;12.050;2023-02-01T11:36:06;97672.91;;;4.47;74.62
75008;BME280;63554;48.940;12.050;2023-02-01T11:40:23;97668.41;;;4.40;74.19
75008;BME280;63554;48.940;12.050;2023-02-01T11:44:32;97662.44;;;4.29;75.17
75008;BME280;63554;48.940;12.050;2023-02-01T11:48:35;97682.34;;;4.27;74.99
75008;BME280;63554;48.940;12.050;2023-02-01T11:52:57;97649.53;;;4.25;75.66
75008;BME280;63554;48.940;12.050;2023-02-01T11:57:17;97657.25;;;4.20;77.02
75008;BME280;63554;48.940;12.050;2023-02-01T12:01:36;97644.78;;;4.35;77.06
75008;BME280;63554;48.940;12.050;2023-02-01T12:05:47;97640.47;;;4.34;77.68
75008;BME280;63554;48.940;12.050;2023-02-01T12:10:04;97634.94;;;4.35;78.30
75008;BME280;63554;48.940;12.050;2023-02-01T12:14:21;97632.38;;;4.42;78.72
75008;BME280;63554;48.940;12.050;2023-02-01T12:18:58;97626.19;;;4.42;78.69
75008;BME280;63554;48.940;12.050;2023-02-01T12:23:16;97647.88;;;4.24;77.69
75008;BME280;63554;48.940;12.050;2023-02-01T12:27:39;97628.50;;;4.05;78.73
75008;BME280;63554;48.940;12.050;2023-02-01T12:31:57;97612.13;;;4.00;79.03
75008;BME280;63554;48.940;12.050;2023-02-01T12:36:10;97615.16;;;3.89;79.60
75008;BME280;63554;48.940;12.050;2023-02-01T12:40:22;97615.19;;;3.72;80.45
75008;BME280;63554;48.940;12.050;2023-02-01T12:44:35;97617.88;;;3.56;81.28
75008;BME280;63554;48.940;12.050;2023-02-01T12:48:42;97620.41;;;3.41;82.08
75008;BME280;63554;48.940;12.050;2023-02-01T12:52:50;97611.53;;;3.32;83.15
75008;BME280;63554;48.940;12.050;2023-02-01T12:56:55;97616.22;;;3.30;82.58
75008;BME280;63554;48.940;12.050;2023-02-01T13:01:06;97605.84;;;3.27;83.01
75008;BME280;63554;48.940;12.050;2023-02-01T13:05:16;97599.16;;;3.23;84.29
75008;BME280;63554;48.940;12.050;2023-02-01T13:09:25;97611.38;;;3.17;85.40
75008;BME280;63554;48.940;12.050;2023-02-01T13:13:32;97617.56;;;3.10;84.73
75008;BME280;63554;48.940;12.050;2023-02-01T13:17:41;97621.22;;;3.09;84.56
75008;BME280;63554;48.940;12.050;2023-02-01T13:21:51;97622.56;;;3.13;85.53
75008;BME280;63554;48.940;12.050;2023-02-01T13:25:56;97616.53;;;3.11;84.39
75008;BME280;63554;48.940;12.050;2023-02-01T13:30:01;97614.03;;;3.09;84.85
75008;BME280;63554;48.940;12.050;2023-02-01T13:34:36;97626.25;;;3.12;85.71
75008;BME280;63554;48.940;12.050;2023-02-01T13:39:03;97606.88;;;3.10;84.97
75008;BME280;63554;48.940;12.050;2023-02-01T13:43:17;97606.19;;;3.08;85.50
75008;BME280;63554;48.940;12.050;2023-02-01T13:47:25;97598.66;;;3.03;85.08
75008;BME280;63554;48.940;12.050;2023-02-01T13:51:37;97608.00;;;3.07;83.92
75008;BME280;63554;48.940;12.050;2023-02-01T13:55:41;97608.00;;;3.15;83.35
75008;BME280;63554;48.940;12.050;2023-02-01T13:59:51;97607.03;;;3.16;82.80
75008;BME280;63554;48.940;12.050;2023-02-01T14:03:57;97599.16;;;3.23;82.66
75008;BME280;63554;48.940;12.050;2023-02-01T14:08:12;97605.38;;;3.24;82.73
75008;BME280;63554;48.940;12.050;2023-02-01T14:12:44;97601.34;;;3.28;82.29
75008;BME280;63554;48.940;12.050;2023-02-01T14:21:47;97604.69;;;3.30;81.52
75008;BME280;63554;48.940;12.050;2023-02-01T14:26:07;97598.50;;;3.29;81.12
75008;BME280;63554;48.940;12.050;2023-02-01T14:30:15;97589.81;;;3.35;79.89
75008;BME280;63554;48.940;12.050;2023-02-01T14:34:22;97591.66;;;3.43;78.80
75008;BME280;63554;48.940;12.050;2023-02-01T14:38:27;97597.81;;;3.44;78.64
75008;BME280;63554;48.940;12.050;2023-02-01T14:42:38;97598.34;;;3.47;77.80
75008;BME280;63554;48.940;12.050;2023-02-01T14:51:24;97601.34;;;3.44;77.54
75008;BME280;63554;48.940;12.050;2023-02-01T14:55:34;97619.25;;;3.35;78.44
75008;BME280;63554;48.940;12.050;2023-02-01T14:59:39;97604.84;;;3.20;79.59
75008;BME280;63554;48.940;12.050;2023-02-01T15:03:58;97611.88;;;3.13;80.82
75008;BME280;63554;48.940;12.050;2023-02-01T15:08:07;97609.53;;;3.10;81.07
75008;BME280;63554;48.940;12.050;2023-02-01T15:12:16;97609.34;;;3.11;80.69
75008;BME280;63554;48.940;12.050;2023-02-01T15:16:24;97592.47;;;3.11;80.87
75008;BME280;63554;48.940;12.050;2023-02-01T15:20:29;97593.50;;;3.10;80.12
75008;BME280;63554;48.940;12.050;2023-02-01T15:24:34;97583.28;;;3.13;79.15
75008;BME280;63554;48.940;12.050;2023-02-01T15:28:37;97582.78;;;3.18;78.94
75008;BME280;63554;48.940;12.050;2023-02-01T15:32:41;97576.63;;;3.17;77.88
75008;BME280;63554;48.940;12.050;2023-02-01T15:36:45;97574.75;;;3.26;77.22
75008;BME280;63554;48.940;12.050;2023-02-01T15:41:05;97565.06;;;3.25;77.30
75008;BME280;63554;48.940;12.050;2023-02-01T15:45:16;97563.56;;;3.23;77.95
75008;BME280;63554;48.940;12.050;2023-02-01T15:49:25;97559.38;;;3.28;76.65
75008;BME280;63554;48.940;12.050;2023-02-01T15:53:29;97550.16;;;3.39;74.61
75008;BME280;63554;48.940;12.050;2023-02-01T15:57:34;97547.50;;;3.47;73.92
75008;BME280;63554;48.940;12.050;2023-02-01T16:01:38;97555.69;;;3.46;73.77
75008;BME280;63554;48.940;12.050;2023-02-01T16:05:45;97570.56;;;3.48;73.48
75008;BME280;63554;48.940;12.050;2023-02-01T16:09:52;97572.09;;;3.51;72.19
75008;BME280;63554;48.940;12.050;2023-02-01T16:13:55;97563.34;;;3.49;72.59
75008;BME280;63554;48.940;12.050;2023-02-01T16:17:58;97577.41;;;3.59;71.15
75008;BME280;63554;48.940;12.050;2023-02-01T16:22:02;97567.69;;;3.66;71.28
75008;BME280;63554;48.940;12.050;2023-02-01T16:26:05;97591.41;;;3.78;70.63
75008;BME280;63554;48.940;12.050;2023-02-01T16:30:09;97570.19;;;3.68;71.00
75008;BME280;63554;48.940;12.050;2023-02-01T16:34:14;97575.25;;;3.63;71.27
75008;BME280;63554;48.940;12.050;2023-02-01T16:38:19;97593.28;;;3.52;71.14
75008;BME280;63554;48.940;12.050;2023-02-01T16:42:23;97586.72;;;3.80;73.52
75008;BME280;63554;48.940;12.050;2023-02-01T16:46:28;97585.44;;;3.59;71.41
75008;BME280;63554;48.940;12.050;2023-02-01T16:50:34;97579.59;;;3.47;72.41
75008;BME280;63554;48.940;12.050;2023-02-01T16:54:38;97601.84;;;3.48;72.17
75008;BME280;63554;48.940;12.050;2023-02-01T16:58:41;97590.81;;;3.51;71.78
75008;BME280;63554;48.940;12.050;2023-02-01T17:02:44;97574.25;;;3.55;72.06
75008;BME280;63554;48.940;12.050;2023-02-01T17:06:47;97608.50;;;3.60;71.59
75008;BME280;63554;48.940;12.050;2023-02-01T17:10:52;97588.28;;;3.58;71.93
75008;BME280;63554;48.940;12.050;2023-02-01T17:14:55;97605.00;;;3.60;71.87
75008;BME280;63554;48.940;12.050;2023-02-01T17:19:02;97592.31;;;3.53;72.75
75008;BME280;63554;48.940;12.050;2023-02-01T17:23:06;97595.97;;;3.52;72.58
75008;BME280;63554;48.940;12.050;2023-02-01T17:27:10;97591.97;;;3.48;72.59
75008;BME280;63554;48.940;12.050;2023-02-01T17:31:14;97598.66;;;3.44;73.11
75008;BME280;63554;48.940;12.050;2023-02-01T17:35:19;97589.31;;;3.40;73.60
75008;BME280;63554;48.940;12.050;2023-02-01T17:39:23;97583.13;;;3.31;73.90
75008;BME280;63554;48.940;12.050;2023-02-01T17:43:51;97592.00;;;3.32;74.38
75008;BME280;63554;48.940;12.050;2023-02-01T17:47:54;97589.47;;;3.30;73.86
75008;BME280;63554;48.940;12.050;2023-02-01T17:51:57;97577.44;;;3.34;73.32
75008;BME280;63554;48.940;12.050;2023-02-01T17:56:00;97569.72;;;3.48;72.35
75008;BME280;63554;48.940;12.050;2023-02-01T18:00:05;97542.28;;;3.54;71.93
75008;BME280;63554;48.940;12.050;2023-02-01T18:04:10;97550.28;;;3.62;70.89
75008;BME280;63554;48.940;12.050;2023-02-01T18:08:13;97559.84;;;3.65;71.19
75008;BME280;63554;48.940;12.050;2023-02-01T18:12:19;97564.19;;;3.66;70.80
75008;BME280;63554;48.940;12.050;2023-02-01T18:16:26;97582.22;;;3.72;70.39
75008;BME280;63554;48.940;12.050;2023-02-01T18:20:29;97591.09;;;3.81;69.51
75008;BME280;63554;48.940;12.050;2023-02-01T18:24:33;97550.75;;;3.74;70.48
75008;BME280;63554;48.940;12.050;2023-02-01T18:28:38;97572.00;;;3.75;70.08
75008;BME280;63554;48.940;12.050;2023-02-01T18:32:45;97549.78;;;3.75;70.55
75008;BME280;63554;48.940;12.050;2023-02-01T18:36:49;97534.03;;;3.72;70.46
75008;BME280;63554;48.940;12.050;2023-02-01T18:40:54;97525.50;;;3.85;69.71
75008;BME280;63554;48.940;12.050;2023-02-01T18:44:58;97521.00;;;3.77;69.95
75008;BME280;63554;48.940;12.050;2023-02-01T18:49:03;97526.19;;;3.79;69.82
75008;BME280;63554;48.940;12.050;2023-02-01T18:53:10;97536.56;;;3.73;70.20
75008;BME280;63554;48.940;12.050;2023-02-01T18:57:13;97528.53;;;3.73;70.20
75008;BME280;63554;48.940;12.050;2023-02-01T19:01:17;97536.69;;;3.80;69.19
75008;BME280;63554;48.940;12.050;2023-02-01T19:05:24;97521.97;;;3.84;69.76
75008;BME280;63554;48.940;12.050;2023-02-01T19:09:27;97534.38;;;3.77;69.94
75008;BME280;63554;48.940;12.050;2023-02-01T19:13:32;97521.97;;;3.84;69.78
75008;BME280;63554;48.940;12.050;2023-02-01T19:17:35;97537.19;;;3.84;69.19
75008;BME280;63554;48.940;12.050;2023-02-01T19:21:39;97535.00;;;3.87;69.41
75008;BME280;63554;48.940;12.050;2023-02-01T19:25:43;97536.00;;;3.94;69.05
75008;BME280;63554;48.940;12.050;2023-02-01T19:29:47;97543.19;;;3.94;68.93
75008;BME280;63554;48.940;12.050;2023-02-01T19:33:50;97515.06;;;3.90;69.58
75008;BME280;63554;48.940;12.050;2023-02-01T19:37:54;97539.88;;;3.84;70.09
75008;BME280;63554;48.940;12.050;2023-02-01T19:41:58;97534.50;;;3.84;69.58
75008;BME280;63554;48.940;12.050;2023-02-01T19:46:04;97538.88;;;3.85;69.76
75008;BME280;63554;48.940;12.050;2023-02-01T19:50:09;97543.91;;;3.80;69.92
75008;BME280;63554;48.940;12.050;2023-02-01T19:54:15;97531.03;;;3.75;70.22
75008;BME280;63554;48.940;12.050;2023-02-01T19:58:18;97538.56;;;3.71;70.51
75008;BME280;63554;48.940;12.050;2023-02-01T20:02:20;97545.94;;;3.69;71.14
75008;BME280;63554;48.940;12.050;2023-02-01T20:06:23;97546.97;;;3.60;71.60
75008;BME280;63554;48.940;12.050;2023-02-01T20:10:28;97532.41;;;3.54;72.66
75008;BME280;63554;48.940;12.050;2023-02-01T20:14:31;97551.00;;;3.48;72.94
75008;BME280;63554;48.940;12.050;2023-02-01T20:18:34;97540.31;;;3.48;72.81
75008;BME280;63554;48.940;12.050;2023-02-01T20:22:37;97549.81;;;3.50;72.94
75008;BME280;63554;48.940;12.050;2023-02-01T20:26:42;97550.84;;;3.49;72.94
75008;BME280;63554;48.940;12.050;2023-02-01T20:30:46;97542.31;;;3.46;73.20
75008;BME280;63554;48.940;12.050;2023-02-01T20:34:50;97561.38;;;3.43;73.38
75008;BME280;63554;48.940;12.050;2023-02-01T20:38:55;97550.34;;;3.46;72.35
75008;BME280;63554;48.940;12.050;2023-02-01T20:43:00;97549.31;;;3.47;72.72
75008;BME280;63554;48.940;12.050;2023-02-01T20:47:03;97567.41;;;3.53;71.41
75008;BME280;63554;48.940;12.050;2023-02-01T20:51:07;97554.78;;;3.86;69.45
75008;BME280;63554;48.940;12.050;2023-02-01T20:55:11;97529.00;;;3.85;69.62
75008;BME280;63554;48.940;12.050;2023-02-01T20:59:16;97556.13;;;3.74;70.42
75008;BME280;63554;48.940;12.050;2023-02-01T21:03:19;97542.59;;;3.67;71.01
75008;BME280;63554;48.940;12.050;2023-02-01T21:07:21;97544.78;;;3.64;71.35
75008;BME280;63554;48.940;12.050;2023-02-01T21:11:24;97548.59;;;3.78;70.24
75008;BME280;63554;48.940;12.050;2023-02-01T21:15:28;97542.25;;;3.70;70.96
75008;BME280;63554;48.940;12.050;2023-02-01T21:19:34;97552.44;;;3.75;70.76
75008;BME280;63554;48.940;12.050;2023-02-01T21:23:44;97553.25;;;3.84;70.49
75008;BME280;63554;48.940;12.050;2023-02-01T21:27:46;97527.19;;;3.78;70.98
75008;BME280;63554;48.940;12.050;2023-02-01T21:31:50;97550.59;;;3.75;71.40
75008;BME280;63554;48.940;12.050;2023-02-01T21:35:53;97533.75;;;3.67;72.22
75008;BME280;63554;48.940;12.050;2023-02-01T21:39:55;97548.63;;;3.61;72.90
75008;BME280;63554;48.940;12.050;2023-02-01T21:43:58;97569.56;;;3.58;73.19
75008;BME280;63554;48.940;12.050;2023-02-01T21:48:02;97514.53;;;3.47;74.63
75008;BME280;63554;48.940;12.050;2023-02-01T21:52:07;97530.44;;;3.40;75.13
75008;BME280;63554;48.940;12.050;2023-02-01T21:56:09;97543.84;;;3.32;75.61